createdAt,value
2022-10-21T00:01:32.909Z,79.19
2022-10-21T00:04:02.090Z,78.92
2022-10-21T00:06:28.585Z,78.91
2022-10-21T00:08:55.054Z,78.62
2022-10-21T00:11:21.571Z,79.36
2022-10-21T00:13:48.036Z,79.56
2022-10-21T00:16:17.030Z,78.37
2022-10-21T00:18:47.001Z,79.01
2022-10-21T00:21:17.249Z,79.84
2022-10-21T00:23:43.811Z,78.54
2022-10-21T00:26:11.941Z,78.66
2022-10-21T00:28:38.421Z,78.83
2022-10-21T00:31:12.087Z,79.36
2022-10-21T00:33:38.679Z,79.13
2022-10-21T00:36:07.570Z,79.75
2022-10-21T00:38:35.202Z,78.82
2022-10-21T00:41:02.003Z,78.27
2022-10-21T00:43:28.580Z,79.09
2022-10-21T00:45:58.459Z,78.64
2022-10-21T00:48:36.181Z,78.90
2022-10-21T00:51:12.509Z,78.64
2022-10-21T00:53:41.227Z,78.79
2022-10-21T00:56:15.416Z,79.06
2022-10-21T00:58:43.111Z,77.65
2022-10-21T01:01:09.626Z,78.06
2022-10-21T01:03:36.222Z,78.00
2022-10-21T01:06:07.383Z,77.59
2022-10-21T01:08:34.618Z,78.02
2022-10-21T01:11:01.285Z,78.68
2022-10-21T01:13:53.992Z,77.95
2022-10-21T01:16:33.917Z,78.11
2022-10-21T01:19:33.973Z,78.19
2022-10-21T01:22:05.325Z,78.84
2022-10-21T01:25:15.086Z,77.98
2022-10-21T01:27:44.271Z,78.41
2022-10-21T01:30:15.043Z,77.67
2022-10-21T01:33:18.949Z,77.72
2022-10-21T01:36:06.765Z,77.84
2022-10-21T01:38:48.499Z,78.48
2022-10-21T01:41:33.391Z,78.27
2022-10-21T01:43:59.773Z,78.52
2022-10-21T01:46:28.461Z,79.03
2022-10-21T01:49:03.998Z,78.67
2022-10-21T01:51:30.967Z,78.97
2022-10-21T01:54:05.116Z,78.69
2022-10-21T01:56:31.973Z,78.77
2022-10-21T01:58:59.201Z,79.53
2022-10-21T02:01:25.965Z,80.13
2022-10-21T02:03:59.215Z,79.06
2022-10-21T02:06:27.089Z,79.32
2022-10-21T02:08:53.616Z,78.75
2022-10-21T02:11:20.390Z,78.67
2022-10-21T02:14:04.137Z,78.31
2022-10-21T02:16:33.260Z,79.24
2022-10-21T02:19:00.123Z,78.03
2022-10-21T02:21:28.774Z,78.67
2022-10-21T02:23:58.248Z,78.99
2022-10-21T02:26:27.016Z,78.85
2022-10-21T02:28:55.279Z,78.81
2022-10-21T02:31:32.316Z,78.99
2022-10-21T02:34:01.774Z,79.76
2022-10-21T02:36:49.605Z,80.82
2022-10-21T02:39:25.744Z,79.72
2022-10-21T02:41:54.651Z,80.92
2022-10-21T02:44:21.571Z,79.78
2022-10-21T02:46:48.314Z,80.17
2022-10-21T02:49:14.743Z,78.97
2022-10-21T02:51:41.901Z,80.83
2022-10-21T02:54:08.352Z,78.90
2022-10-21T02:56:35.493Z,79.84
2022-10-21T02:59:02.070Z,80.26
2022-10-21T03:01:28.653Z,80.06
2022-10-21T03:03:55.149Z,80.42
2022-10-21T03:06:21.662Z,80.58
2022-10-21T03:08:48.110Z,80.24
2022-10-21T03:11:14.570Z,79.68
2022-10-21T03:13:41.023Z,80.57
2022-10-21T03:16:07.957Z,80.28
2022-10-21T03:18:34.578Z,80.00
2022-10-21T03:21:01.042Z,80.03
2022-10-21T03:23:27.526Z,79.97
2022-10-21T03:25:53.985Z,79.52
2022-10-21T03:28:20.500Z,79.96
2022-10-21T03:30:46.945Z,79.92
2022-10-21T03:33:13.405Z,79.90
2022-10-21T03:35:39.896Z,78.96
2022-10-21T03:38:06.371Z,80.37
2022-10-21T03:40:32.825Z,79.61
2022-10-21T03:42:59.756Z,80.54
2022-10-21T03:45:26.821Z,80.62
2022-10-21T03:47:53.345Z,79.44
2022-10-21T03:50:23.614Z,80.71
2022-10-21T03:52:52.822Z,80.56
2022-10-21T03:55:20.968Z,79.80
2022-10-21T03:57:48.092Z,79.97
2022-10-21T04:00:14.928Z,80.14
2022-10-21T04:02:41.515Z,80.39
2022-10-21T04:05:08.498Z,80.05
2022-10-21T04:07:34.998Z,79.85
2022-10-21T04:10:01.491Z,79.75
2022-10-21T04:12:27.961Z,79.32
2022-10-21T04:14:54.384Z,79.92
2022-10-21T04:17:20.857Z,80.25
2022-10-21T04:19:47.289Z,79.72
2022-10-21T04:22:13.827Z,79.81
2022-10-21T04:24:40.243Z,79.95
2022-10-21T04:27:06.789Z,80.09
2022-10-21T04:29:33.237Z,80.33
2022-10-21T04:31:59.768Z,81.55
2022-10-21T04:34:26.242Z,80.04
2022-10-21T04:36:52.819Z,79.08
2022-10-21T04:39:19.416Z,79.87
2022-10-21T04:41:45.934Z,80.70
2022-10-21T04:44:12.380Z,80.64
2022-10-21T04:46:38.818Z,80.58
2022-10-21T04:49:05.278Z,80.33
2022-10-21T04:54:03.145Z,80.24
2022-10-21T04:56:29.576Z,79.61
2022-10-21T04:58:56.037Z,79.59
2022-10-21T05:01:22.551Z,78.81
2022-10-21T05:03:49.173Z,79.36
2022-10-21T05:06:15.635Z,79.58
2022-10-21T05:08:42.127Z,79.35
2022-10-21T05:11:08.602Z,80.40
2022-10-21T05:13:35.087Z,80.15
2022-10-21T05:16:03.080Z,80.45
2022-10-21T05:18:30.150Z,80.38
2022-10-21T05:20:56.931Z,79.74
2022-10-21T05:23:24.386Z,79.10
2022-10-21T05:25:51.772Z,80.33
2022-10-21T05:28:21.060Z,78.72
2022-10-21T05:30:48.053Z,78.68
2022-10-21T05:33:14.557Z,78.59
2022-10-21T05:35:41.065Z,78.91
2022-10-21T05:38:07.653Z,79.23
2022-10-21T05:40:34.367Z,79.23
2022-10-21T05:43:00.873Z,78.96
2022-10-21T05:45:27.653Z,79.37
2022-10-21T05:47:54.115Z,78.88
2022-10-21T05:50:20.821Z,79.17
2022-10-21T05:52:47.282Z,80.69
2022-10-21T05:55:13.751Z,80.02
2022-10-21T05:57:40.304Z,79.38
2022-10-21T06:00:07.798Z,79.19
2022-10-21T06:02:34.310Z,78.55
2022-10-21T06:05:00.738Z,79.37
2022-10-21T06:07:27.308Z,79.89
2022-10-21T06:09:54.899Z,79.63
2022-10-21T06:12:22.116Z,79.53
2022-10-21T06:14:48.620Z,79.85
2022-10-21T06:17:15.075Z,80.27
2022-10-21T06:19:41.537Z,79.36
2022-10-21T06:22:08.120Z,80.86
2022-10-21T06:24:34.677Z,80.25
2022-10-21T06:27:01.142Z,79.01
2022-10-21T06:29:27.850Z,79.34
2022-10-21T06:31:54.297Z,79.55
2022-10-21T06:34:21.025Z,79.65
2022-10-21T06:36:47.461Z,78.75
2022-10-21T06:39:14.092Z,78.55
2022-10-21T06:41:40.527Z,79.18
2022-10-21T06:44:07.029Z,78.87
2022-10-21T06:46:33.516Z,79.56
2022-10-21T06:48:59.992Z,79.34
2022-10-21T06:51:26.460Z,79.36
2022-10-21T06:53:54.937Z,79.97
2022-10-21T06:56:22.589Z,80.48
2022-10-21T06:58:50.078Z,79.28
2022-10-21T07:01:34.953Z,79.54
2022-10-21T07:04:07.420Z,79.40
2022-10-21T07:09:06.866Z,79.83
2022-10-21T07:11:33.345Z,80.47
2022-10-21T07:14:00.803Z,80.07
2022-10-21T07:16:33.032Z,80.09
2022-10-21T07:18:59.630Z,80.83
2022-10-21T07:21:27.876Z,80.60
2022-10-21T07:23:57.862Z,80.95
2022-10-21T07:26:27.998Z,80.15
2022-10-21T07:28:55.638Z,80.74
2022-10-21T07:31:22.180Z,80.59
2022-10-21T07:33:48.934Z,80.74
2022-10-21T07:36:21.488Z,80.96
2022-10-21T07:38:48.962Z,81.32
2022-10-21T07:41:21.248Z,81.89
2022-10-21T07:43:48.046Z,81.19
2022-10-21T07:46:14.869Z,81.46
2022-10-21T07:48:41.379Z,81.50
2022-10-21T07:51:10.942Z,80.92
2022-10-21T07:53:38.101Z,81.60
2022-10-21T07:56:28.112Z,81.46
2022-10-21T07:58:54.896Z,81.13
2022-10-21T08:01:21.674Z,81.27
2022-10-21T08:03:48.983Z,81.61
2022-10-21T08:06:17.167Z,81.71
2022-10-21T08:08:44.834Z,80.55
2022-10-21T08:11:11.380Z,80.22
2022-10-21T08:13:39.476Z,81.61
2022-10-21T08:16:06.670Z,80.81
2022-10-21T08:18:33.269Z,80.52
2022-10-21T08:20:59.744Z,80.64
2022-10-21T08:23:26.521Z,80.61
2022-10-21T08:25:55.137Z,80.38
2022-10-21T08:28:22.857Z,79.83
2022-10-21T08:30:49.360Z,79.85
2022-10-21T08:33:16.088Z,79.01
2022-10-21T08:35:42.972Z,79.70
2022-10-21T08:38:10.357Z,79.56
2022-10-21T08:40:39.681Z,80.17
2022-10-21T08:43:10.786Z,79.81
2022-10-21T08:45:43.943Z,79.70
2022-10-21T08:48:15.493Z,79.37
2022-10-21T08:50:52.031Z,79.78
2022-10-21T08:53:33.679Z,80.26
2022-10-21T08:56:04.459Z,80.17
2022-10-21T08:58:31.052Z,80.46
2022-10-21T09:01:02.848Z,79.84
2022-10-21T09:03:47.260Z,80.15
2022-10-21T09:06:23.122Z,79.74
2022-10-21T09:08:57.350Z,79.78
2022-10-21T09:11:36.425Z,80.54
2022-10-21T09:14:23.830Z,80.83
2022-10-21T09:17:18.354Z,79.49
2022-10-21T09:19:59.317Z,80.10
2022-10-21T09:22:36.012Z,79.73
2022-10-21T09:25:21.378Z,80.02
2022-10-21T09:27:56.397Z,79.23
2022-10-21T09:30:25.539Z,80.20
2022-10-21T09:32:57.824Z,79.59
2022-10-21T09:35:48.332Z,79.78
2022-10-21T09:38:22.413Z,79.68
2022-10-21T09:40:50.510Z,80.14
2022-10-21T09:43:19.690Z,80.48
2022-10-21T09:45:46.970Z,80.40
2022-10-21T09:48:26.273Z,79.77
2022-10-21T09:50:55.994Z,79.97
2022-10-21T09:53:34.664Z,79.98
2022-10-21T09:56:04.403Z,80.09
2022-10-21T09:58:36.964Z,79.22
2022-10-21T10:01:05.246Z,78.65
2022-10-21T10:03:36.092Z,79.59
2022-10-21T10:06:04.508Z,79.47
2022-10-21T10:08:44.609Z,79.61
2022-10-21T10:11:12.921Z,80.02
2022-10-21T10:13:44.167Z,78.65
2022-10-21T10:16:14.002Z,81.25
2022-10-21T10:18:41.185Z,80.59
2022-10-21T10:21:21.875Z,79.84
2022-10-21T10:23:55.934Z,80.46
2022-10-21T10:26:31.621Z,79.60
2022-10-21T10:29:09.662Z,79.63
2022-10-21T10:31:36.783Z,79.49
2022-10-21T10:34:06.739Z,80.31
2022-10-21T10:36:41.425Z,79.43
2022-10-21T10:39:19.928Z,79.76
2022-10-21T10:41:48.660Z,79.35
2022-10-21T10:44:32.507Z,78.95
2022-10-21T10:47:01.412Z,78.60
2022-10-21T10:49:35.166Z,78.04
2022-10-21T10:52:06.037Z,77.91
2022-10-21T10:54:32.729Z,77.36
2022-10-21T10:57:16.424Z,78.44
2022-10-21T10:59:56.947Z,77.52
2022-10-21T11:02:38.462Z,77.42
2022-10-21T11:05:34.124Z,77.71
2022-10-21T11:08:06.422Z,77.31
2022-10-21T11:10:39.617Z,76.84
2022-10-21T11:13:13.396Z,76.60
2022-10-21T11:16:18.312Z,76.46
2022-10-21T11:18:50.480Z,76.53
2022-10-21T11:21:34.244Z,76.65
2022-10-21T11:24:09.939Z,78.88
2022-10-21T11:26:49.048Z,78.05
2022-10-21T11:29:34.928Z,77.00
2022-10-21T11:32:30.460Z,77.74
2022-10-21T11:35:34.497Z,76.82
2022-10-21T11:38:16.220Z,77.71
2022-10-21T11:41:10.864Z,78.10
2022-10-21T11:44:11.366Z,78.41
2022-10-21T11:46:53.016Z,77.08
2022-10-21T11:49:37.202Z,76.67
2022-10-21T11:52:25.320Z,76.98
2022-10-21T11:55:10.492Z,76.60
2022-10-21T11:57:46.468Z,76.77
2022-10-21T12:00:21.973Z,75.97
2022-10-21T12:03:13.604Z,74.97
2022-10-21T12:06:01.696Z,74.49
2022-10-21T12:08:35.528Z,73.63
2022-10-21T12:11:13.588Z,73.48
2022-10-21T12:13:44.991Z,72.28
2022-10-21T12:16:15.216Z,72.70
2022-10-21T12:18:44.737Z,70.88
2022-10-21T12:21:16.965Z,72.35
2022-10-21T12:23:44.852Z,70.50
2022-10-21T12:26:29.201Z,72.52
2022-10-21T12:29:12.347Z,71.42
2022-10-21T12:31:51.776Z,72.20
2022-10-21T12:34:18.434Z,71.08
2022-10-21T12:36:48.714Z,71.68
2022-10-21T12:39:33.596Z,71.41
2022-10-21T12:42:12.529Z,71.31
2022-10-21T12:44:39.823Z,70.20
2022-10-21T12:47:24.105Z,70.05
2022-10-21T12:50:29.839Z,69.68
2022-10-21T12:53:20.944Z,70.90
2022-10-21T12:55:53.578Z,69.88
2022-10-21T12:58:47.694Z,70.19
2022-10-21T13:01:39.354Z,70.43
2022-10-21T13:04:31.404Z,68.88
2022-10-21T13:07:16.356Z,70.53
2022-10-21T13:10:02.809Z,70.31
2022-10-21T13:12:31.184Z,68.34
2022-10-21T13:15:20.310Z,68.84
2022-10-21T13:17:53.615Z,69.76
2022-10-21T13:20:20.048Z,70.92
2022-10-21T13:23:01.782Z,69.70
2022-10-21T13:25:32.730Z,69.57
2022-10-21T13:28:14.580Z,70.40
2022-10-21T13:30:58.530Z,71.67
2022-10-21T13:33:26.599Z,72.09
2022-10-21T13:36:01.645Z,72.68
2022-10-21T13:38:32.761Z,72.74
2022-10-21T13:41:07.706Z,72.21
2022-10-21T13:43:34.119Z,72.77
2022-10-21T13:46:08.044Z,71.85
2022-10-21T13:48:42.732Z,72.08
2022-10-21T13:51:25.271Z,72.37
2022-10-21T13:53:57.037Z,72.55
2022-10-21T13:56:33.230Z,72.66
2022-10-21T13:59:00.188Z,74.58
2022-10-21T14:01:29.814Z,73.66
2022-10-21T14:04:12.206Z,73.89
2022-10-21T14:06:43.260Z,73.67
2022-10-21T14:09:16.980Z,73.05
2022-10-21T14:11:48.621Z,72.89
2022-10-21T14:14:16.592Z,73.50
2022-10-21T14:16:57.001Z,72.85
2022-10-21T14:19:28.390Z,73.04
2022-10-21T14:21:56.661Z,74.46
2022-10-21T14:24:46.390Z,73.93
2022-10-21T14:27:23.023Z,74.44
2022-10-21T14:29:49.675Z,73.82
2022-10-21T14:32:20.596Z,73.63
2022-10-21T14:35:13.569Z,72.05
2022-10-21T14:37:44.297Z,72.66
2022-10-21T14:40:21.729Z,73.39
2022-10-21T14:42:52.383Z,73.72
2022-10-21T14:45:28.759Z,73.61
2022-10-21T14:48:10.829Z,73.03
2022-10-21T14:50:39.371Z,73.58
2022-10-21T14:53:20.160Z,73.75
2022-10-21T14:55:47.597Z,72.61
2022-10-21T14:58:23.077Z,73.16
2022-10-21T15:00:58.977Z,72.63
2022-10-21T15:03:51.217Z,73.17
2022-10-21T15:06:28.201Z,73.45
2022-10-21T15:08:57.912Z,74.09
2022-10-21T15:11:28.908Z,74.53
2022-10-21T15:14:05.672Z,74.59
2022-10-21T15:16:32.850Z,74.10
2022-10-21T15:18:59.552Z,74.09
2022-10-21T15:21:37.846Z,74.37
2022-10-21T15:24:04.666Z,73.79
2022-10-21T15:26:33.880Z,73.95
2022-10-21T15:29:00.920Z,74.90
2022-10-21T15:31:29.238Z,75.38
2022-10-21T15:33:57.267Z,74.78
2022-10-21T15:36:24.451Z,74.81
2022-10-21T15:38:50.897Z,74.89
2022-10-21T15:41:23.641Z,75.50
2022-10-21T15:44:17.987Z,74.88
2022-10-21T15:46:49.893Z,76.34
2022-10-21T15:49:19.422Z,75.73
2022-10-21T15:51:46.745Z,74.77
2022-10-21T15:54:13.748Z,75.07
2022-10-21T15:56:42.179Z,75.32
2022-10-21T15:59:17.273Z,75.71
2022-10-21T16:01:43.856Z,75.92
2022-10-21T16:04:10.271Z,75.80
2022-10-21T16:06:36.733Z,76.27
2022-10-21T16:09:03.359Z,76.35
2022-10-21T16:11:40.788Z,76.09
2022-10-21T16:14:10.115Z,76.49
2022-10-21T16:16:38.290Z,76.25
2022-10-21T16:19:05.214Z,76.85
2022-10-21T16:21:31.767Z,76.57
2022-10-21T16:23:58.469Z,76.97
2022-10-21T16:26:26.945Z,79.23
2022-10-21T16:28:54.985Z,77.66
2022-10-21T16:31:21.688Z,75.61
2022-10-21T16:33:48.164Z,76.96
2022-10-21T16:36:36.745Z,74.95
2022-10-21T16:39:12.717Z,72.57
2022-10-21T16:41:39.299Z,74.39
2022-10-21T16:44:05.730Z,75.82
2022-10-21T16:46:35.219Z,76.26
2022-10-21T16:49:07.899Z,75.61
2022-10-21T16:51:38.774Z,75.49
2022-10-21T16:54:05.516Z,76.35
2022-10-21T16:56:31.970Z,76.52
2022-10-21T16:58:58.464Z,76.37
2022-10-21T17:01:30.598Z,75.51
2022-10-21T17:03:57.112Z,76.23
2022-10-21T17:06:26.296Z,74.97
2022-10-21T17:08:55.873Z,75.08
2022-10-21T17:11:25.465Z,76.28
2022-10-21T17:13:52.189Z,76.40
2022-10-21T17:16:20.223Z,76.92
2022-10-21T17:18:49.626Z,76.28
2022-10-21T17:21:26.244Z,77.25
2022-10-21T17:23:55.361Z,77.08
2022-10-21T17:26:23.337Z,76.70
2022-10-21T17:28:52.345Z,76.46
2022-10-21T17:31:22.719Z,76.45
2022-10-21T17:33:50.798Z,77.15
2022-10-21T17:36:18.989Z,77.73
2022-10-21T17:38:46.099Z,77.36
2022-10-21T17:41:14.317Z,78.65
2022-10-21T17:43:40.881Z,78.40
2022-10-21T17:46:07.520Z,78.15
2022-10-21T17:48:34.452Z,78.46
2022-10-21T17:51:02.308Z,79.34
2022-10-21T17:53:30.615Z,79.35
2022-10-21T17:56:07.621Z,79.26
2022-10-21T17:58:35.696Z,79.06
2022-10-21T18:01:08.702Z,78.55
2022-10-21T18:03:37.730Z,79.51
2022-10-21T18:06:09.573Z,79.19
2022-10-21T18:08:37.113Z,79.31
2022-10-21T18:11:07.862Z,78.78
2022-10-21T18:13:34.677Z,79.32
2022-10-21T18:16:10.049Z,78.66
2022-10-21T18:18:37.295Z,79.65
2022-10-21T18:21:05.602Z,79.30
2022-10-21T18:23:32.432Z,78.79
2022-10-21T18:26:07.574Z,79.20
2022-10-21T18:28:35.833Z,79.85
2022-10-21T18:31:03.790Z,78.88
2022-10-21T18:33:30.784Z,79.38
2022-10-21T18:35:57.517Z,78.84
2022-10-21T18:38:24.072Z,79.21
2022-10-21T18:40:56.464Z,78.75
2022-10-21T18:43:28.656Z,79.59
2022-10-21T18:45:55.260Z,79.72
2022-10-21T18:48:21.861Z,79.33
2022-10-21T18:50:48.334Z,78.93
2022-10-21T18:53:15.091Z,78.86
2022-10-21T18:55:41.822Z,78.93
2022-10-21T18:58:08.394Z,79.15
2022-10-21T19:00:35.165Z,78.60
2022-10-21T19:03:01.862Z,78.73
2022-10-21T19:05:28.849Z,78.16
2022-10-21T19:07:55.518Z,79.15
2022-10-21T19:10:21.976Z,78.87
2022-10-21T19:12:48.514Z,79.11
2022-10-21T19:15:15.200Z,78.60
2022-10-21T19:17:44.054Z,78.49
2022-10-21T19:20:10.963Z,78.96
2022-10-21T19:22:38.722Z,77.83
2022-10-21T19:25:07.268Z,78.04
2022-10-21T19:27:34.329Z,78.19
2022-10-21T19:30:01.382Z,78.03
2022-10-21T19:32:28.281Z,79.03
2022-10-21T19:34:55.433Z,78.44
2022-10-21T19:37:21.982Z,79.47
2022-10-21T19:39:49.024Z,78.65
2022-10-21T19:42:15.456Z,78.92
2022-10-21T19:44:41.890Z,78.84
2022-10-21T19:47:08.339Z,78.77
2022-10-21T19:49:34.913Z,78.07
2022-10-21T19:52:03.153Z,79.16
2022-10-21T19:54:29.633Z,78.68
2022-10-21T19:56:56.444Z,78.51
2022-10-21T19:59:23.130Z,78.96
2022-10-21T20:01:49.686Z,78.64
2022-10-21T20:04:16.236Z,78.84
2022-10-21T20:06:42.764Z,78.44
2022-10-21T20:09:11.675Z,78.30
2022-10-21T20:11:39.333Z,77.94
2022-10-21T20:14:06.358Z,78.48
2022-10-21T20:16:35.550Z,78.17
2022-10-21T20:19:03.529Z,78.23
2022-10-21T20:21:31.160Z,77.84
2022-10-21T20:23:58.577Z,78.65
2022-10-21T20:26:25.222Z,78.05
2022-10-21T20:28:52.267Z,79.35
2022-10-21T20:31:19.087Z,78.69
2022-10-21T20:33:48.283Z,78.49
2022-10-21T20:36:29.646Z,79.01
2022-10-21T20:38:57.414Z,79.36
2022-10-21T20:41:27.511Z,78.40
2022-10-21T20:43:54.753Z,78.22
2022-10-21T20:46:22.988Z,78.66
2022-10-21T20:48:50.450Z,77.19
2022-10-21T20:51:25.869Z,78.31
2022-10-21T20:53:54.671Z,78.04
2022-10-21T20:56:21.993Z,78.61
2022-10-21T20:58:48.559Z,77.83
2022-10-21T21:01:26.346Z,77.72
2022-10-21T21:03:54.472Z,77.71
2022-10-21T21:06:21.153Z,78.09
2022-10-21T21:09:02.854Z,78.14
2022-10-21T21:11:34.696Z,79.06
2022-10-21T21:14:01.154Z,78.89
2022-10-21T21:16:27.770Z,78.35
2022-10-21T21:19:03.001Z,79.00
2022-10-21T21:21:30.583Z,78.27
2022-10-21T21:23:57.686Z,78.40
2022-10-21T21:26:32.691Z,78.40
2022-10-21T21:28:59.162Z,78.17
2022-10-21T21:31:26.655Z,77.63
2022-10-21T21:33:53.725Z,78.27
2022-10-21T21:36:21.147Z,78.42
2022-10-21T21:38:47.880Z,78.16
2022-10-21T21:41:16.538Z,77.62
2022-10-21T21:43:47.252Z,77.93
2022-10-21T21:46:22.488Z,77.32
2022-10-21T21:49:05.500Z,78.34
2022-10-21T21:51:36.106Z,78.25
2022-10-21T21:54:03.628Z,78.51
2022-10-21T21:56:30.144Z,77.87
2022-10-21T21:58:58.089Z,78.45
2022-10-21T22:01:27.055Z,77.64
2022-10-21T22:03:54.382Z,78.50
2022-10-21T22:06:23.104Z,78.58
2022-10-21T22:08:50.728Z,78.27
2022-10-21T22:11:19.791Z,77.68
2022-10-21T22:13:46.459Z,78.50
2022-10-21T22:16:14.845Z,78.05
2022-10-21T22:18:41.900Z,78.43
2022-10-21T22:21:11.008Z,78.29
2022-10-21T22:23:37.867Z,79.38
2022-10-21T22:26:05.502Z,79.32
2022-10-21T22:28:32.442Z,78.49
2022-10-21T22:31:08.173Z,78.75
2022-10-21T22:33:35.241Z,78.73
2022-10-21T22:36:02.016Z,77.98
2022-10-21T22:38:29.712Z,78.19
2022-10-21T22:40:57.980Z,78.96
2022-10-21T22:43:26.350Z,79.42
2022-10-21T22:45:55.244Z,80.02
2022-10-21T22:48:28.011Z,79.79
2022-10-21T22:50:54.538Z,80.30
2022-10-21T22:53:21.034Z,80.88
2022-10-21T22:55:47.491Z,80.44
2022-10-21T22:58:21.592Z,80.35
2022-10-21T23:00:48.686Z,81.02
2022-10-21T23:03:17.063Z,80.81
2022-10-21T23:05:44.138Z,80.33
2022-10-21T23:08:11.598Z,80.69
2022-10-21T23:10:38.681Z,80.85
2022-10-21T23:13:06.040Z,81.18
2022-10-21T23:15:36.262Z,81.35
2022-10-21T23:18:03.999Z,81.04
2022-10-21T23:20:30.599Z,80.73
2022-10-21T23:22:58.045Z,81.19
2022-10-21T23:25:25.678Z,80.34
2022-10-21T23:27:52.328Z,80.72
2022-10-21T23:30:19.259Z,80.82
2022-10-21T23:32:45.964Z,80.92
2022-10-21T23:35:14.015Z,80.21
2022-10-21T23:37:40.821Z,80.63
2022-10-21T23:40:08.840Z,81.69
2022-10-21T23:42:38.961Z,80.28
2022-10-21T23:45:09.266Z,80.46
2022-10-21T23:47:35.872Z,81.04
2022-10-21T23:50:02.965Z,81.53
2022-10-21T23:52:29.454Z,80.55
2022-10-21T23:54:55.939Z,81.02
2022-10-21T23:57:22.417Z,80.83
2022-10-21T23:59:48.913Z,80.79
